KBDL/BDL METAR and TAF weather

Enter ICAO airport designator
Station Type Date Time Source
KBDL METAR 2019/08/22 06:51 UTC NOAA

KBDL 220651Z 16004KT 8SM BCFG FEW001 BKN250 21/19 A2983 RMK AO2 VIS 2 RWY 6-24 SLP098 BCFG AT AP T02060194 $


Station Type Date Time Source
KBDL Decoded METAR 2019/08/22 06:51 UTC NOAA

Station name not available
Aug 22, 2019 - 02:51 AM EDT / 2019.08.22 0651 UTC
Wind: from the SSE (160 degrees) at 5 MPH (4 KT):0
Visibility: 8 mile(s):0
Sky conditions: mostly cloudy
Weather: patches of fog
Temperature: 69.1 F (20.6 C)
Dew Point: 66.9 F (19.4 C)
Relative Humidity: 92%
Pressure (altimeter): 29.83 in. Hg (1010 hPa)
ob: KBDL 220651Z 16004KT 8SM BCFG FEW001 BKN250 21/19 A2983 RMK AO2 VIS 2 RWY 6-24 SLP098 BCFG AT AP T02060194
cycle: 7

Station Type Date Time Source
KBDL TAF 2019/08/22 06:42 UTC NOAA

TAF KBDL 220540Z 2206/2312 VRB03KT P6SM SCT050
FM220900 00000KT 5SM BR SCT002
FM221100 24003KT P6SM SCT045
FM221800 27006KT P6SM VCSH BKN045
FM230100 30005KT P6SM SCT045

Example: see airport list